Time;durP1;ratioP1;P1;durP2;ratioP2;P2;SDS_P1;SDS_P2;PMS_P1;PMS_P2;Temp;Humidity;BMP_temperature;BMP_pressure;BME280_temperature;BME280_humidity;BME280_pressure;Samples;Min_cycle;Max_cycle;Signal;HPM_P1;HPM_P2
2022/07/02 00:00:57;;;;;;;3.80;2.10;;;;;;;14.35;81.37;101947.75;5081001;28;20039;-76
2022/07/02 00:03:29;;;;;;;4.22;2.33;;;;;;;14.30;81.53;101952.63;5051707;28;20040;-76
2022/07/02 00:05:57;;;;;;;3.53;2.05;;;;;;;14.26;81.98;101946.06;5076862;28;20393;-75
2022/07/02 00:08:24;;;;;;;4.70;2.83;;;;;;;14.28;82.08;101947.56;5079535;28;20119;-75
2022/07/02 00:10:51;;;;;;;6.30;2.25;;;;;;;14.33;81.46;101944.50;5078250;28;20035;-76
2022/07/02 00:13:18;;;;;;;4.00;2.15;;;;;;;14.37;81.06;101946.66;5078987;28;20028;-75
2022/07/02 00:15:45;;;;;;;3.92;2.13;;;;;;;14.39;81.00;101947.31;5084867;28;20035;-75
2022/07/02 00:18:11;;;;;;;3.40;1.90;;;;;;;14.40;80.51;101946.31;5076656;28;20035;-76
2022/07/02 00:20:38;;;;;;;6.70;2.20;;;;;;;14.34;80.71;101944.34;5079477;28;20477;-76
2022/07/02 00:23:04;;;;;;;3.90;1.90;;;;;;;14.27;81.20;101953.75;5056395;28;20078;-76
2022/07/02 00:25:39;;;;;;;4.63;2.47;;;;;;;14.19;81.56;101957.13;5065739;28;20044;-76
2022/07/02 00:28:06;;;;;;;3.92;2.22;;;;;;;14.14;81.84;101963.75;5066490;28;20037;-76
2022/07/02 00:30:32;;;;;;;5.13;2.13;;;;;;;14.08;82.08;101959.16;5060981;28;20485;-75
2022/07/02 00:32:59;;;;;;;5.10;2.42;;;;;;;14.08;82.14;101959.16;5056906;28;20385;-75
2022/07/02 00:35:25;;;;;;;3.03;2.10;;;;;;;14.10;82.01;101959.81;5049539;28;20453;-75
2022/07/02 00:37:52;;;;;;;6.28;2.17;;;;;;;14.13;81.92;101954.31;5076536;28;20446;-76
2022/07/02 00:40:18;;;;;;;3.22;2.30;;;;;;;14.17;81.52;101958.25;5056496;28;20699;-75
2022/07/02 00:42:44;;;;;;;6.60;1.92;;;;;;;14.17;81.36;101951.22;5085568;28;20043;-76
2022/07/02 00:45:10;;;;;;;4.25;1.75;;;;;;;14.19;81.28;101958.91;5060077;28;20051;-76
2022/07/02 00:47:37;;;;;;;3.85;2.15;;;;;;;14.20;80.97;101950.09;5076650;28;20024;-76
2022/07/02 00:50:06;;;;;;;6.13;2.20;;;;;;;14.22;81.00;101953.38;5060259;28;20568;-76
2022/07/02 00:52:32;;;;;;;4.60;1.70;;;;;;;14.21;80.75;101952.56;5078060;28;20512;-76
2022/07/02 00:54:57;;;;;;;3.75;1.95;;;;;;;14.18;80.91;101957.25;5056996;28;20035;-76
2022/07/02 00:57:23;;;;;;;3.88;2.00;;;;;;;14.13;80.96;101949.91;5058619;28;20125;-75
2022/07/02 00:59:48;;;;;;;4.22;1.92;;;;;;;14.04;81.32;101945.59;5071457;28;20036;-76
2022/07/02 01:02:16;;;;;;;3.75;1.98;;;;;;;14.04;81.49;101956.03;5073065;28;20035;-75
2022/07/02 01:04:45;;;;;;;3.97;1.77;;;;;;;14.04;81.38;101945.59;5073428;28;20082;-75
2022/07/02 01:07:14;;;;;;;4.60;2.20;;;;;;;14.04;81.45;101942.97;5050938;28;20036;-75
2022/07/02 01:12:27;;;;;;;3.67;2.10;;;;;;;13.99;81.82;101945.22;5077552;28;20496;-76
2022/07/02 01:14:54;;;;;;;5.00;2.45;;;;;;;13.93;82.10;101944.03;5082928;28;20066;-75
2022/07/02 01:17:20;;;;;;;4.63;2.17;;;;;;;13.89;82.13;101932.28;5059133;28;20036;-75
2022/07/02 01:19:46;;;;;;;3.75;2.17;;;;;;;13.82;82.47;101939.88;5077602;28;20039;-76
2022/07/02 01:22:18;;;;;;;3.42;2.35;;;;;;;13.78;82.61;101937.72;5055654;28;20031;-76
2022/07/02 01:24:49;;;;;;;4.35;2.05;;;;;;;13.72;82.97;101933.91;5057948;28;20032;-75
2022/07/02 01:27:16;;;;;;;5.32;2.00;;;;;;;13.67;83.05;101933.53;5078299;28;20058;-76
2022/07/02 01:29:41;;;;;;;7.88;2.30;;;;;;;13.65;82.91;101940.69;5072577;28;20111;-75
2022/07/02 01:32:08;;;;;;;14.32;2.15;;;;;;;13.61;83.28;101934.13;5081698;28;20115;-75
2022/07/02 01:34:36;;;;;;;4.88;1.60;;;;;;;13.60;83.62;101933.31;5062566;28;20024;-76
2022/07/02 01:37:03;;;;;;;3.35;2.10;;;;;;;13.61;83.49;101927.13;5079579;28;20067;-76
2022/07/02 01:39:28;;;;;;;5.25;2.35;;;;;;;13.62;83.10;101931.38;5045779;28;20036;-76
2022/07/02 01:41:54;;;;;;;3.45;2.40;;;;;;;13.64;82.82;101939.06;5081287;28;20031;-75
2022/07/02 01:44:19;;;;;;;3.85;2.00;;;;;;;13.65;82.73;101938.06;5058806;28;20031;-76
2022/07/02 01:46:45;;;;;;;6.18;2.75;;;;;;;13.60;82.60;101935.94;5060281;28;20503;-75
2022/07/02 01:49:11;;;;;;;4.25;2.33;;;;;;;13.54;82.78;101943.50;5079875;28;20020;-75
2022/07/02 01:51:36;;;;;;;4.57;1.85;;;;;;;13.46;83.05;101946.03;5080218;28;20520;-75
2022/07/02 01:54:03;;;;;;;5.30;2.30;;;;;;;13.37;83.49;101945.13;5078788;28;20515;-75
2022/07/02 01:56:32;;;;;;;6.30;2.40;;;;;;;13.33;83.65;101936.78;5043139;28;20059;-75
2022/07/02 01:58:58;;;;;;;3.97;2.20;;;;;;;13.34;84.00;101933.22;5074063;28;20067;-75
2022/07/02 02:01:24;;;;;;;5.18;2.10;;;;;;;13.35;83.72;101942.66;5062967;28;20043;-76
2022/07/02 02:03:49;;;;;;;4.85;2.00;;;;;;;13.30;83.69;101938.81;5083554;28;20044;-76
2022/07/02 02:06:14;;;;;;;5.55;2.50;;;;;;;13.24;84.07;101942.81;5077471;28;20043;-75
2022/07/02 02:08:40;;;;;;;4.40;2.15;;;;;;;13.17;84.20;101941.78;5063596;28;20503;-76
2022/07/02 02:11:05;;;;;;;6.90;2.90;;;;;;;13.14;84.72;101944.66;5062398;28;20044;-75
2022/07/02 02:13:31;;;;;;;4.65;2.30;;;;;;;13.12;84.84;101949.22;5076177;28;20032;-75
2022/07/02 02:15:56;;;;;;;8.55;2.30;;;;;;;13.07;84.74;101941.00;5058343;28;20031;-76
2022/07/02 02:18:22;;;;;;;9.35;2.05;;;;;;;13.01;85.08;101940.59;5064886;28;20030;-75
2022/07/02 02:20:47;;;;;;;4.00;2.00;;;;;;;12.98;85.10;101950.53;5078132;28;20384;-75
2022/07/02 02:23:13;;;;;;;8.65;2.75;;;;;;;12.97;85.32;101948.88;5078576;28;20388;-75
2022/07/02 02:25:38;;;;;;;4.40;2.30;;;;;;;12.96;85.24;101948.06;5081402;28;20057;-75
2022/07/02 02:28:04;;;;;;;4.13;2.58;;;;;;;12.94;85.49;101944.78;5059605;28;20028;-75
2022/07/02 02:30:29;;;;;;;5.15;2.42;;;;;;;12.94;85.73;101946.53;5065809;28;20036;-75
2022/07/02 02:32:55;;;;;;;5.47;2.47;;;;;;;12.93;85.70;101948.31;5059505;28;20036;-75
2022/07/02 02:35:20;;;;;;;5.53;2.28;;;;;;;12.93;85.86;101944.91;5061302;28;20028;-76
2022/07/02 02:37:46;;;;;;;5.68;2.70;;;;;;;12.94;85.58;101949.97;5062089;28;20043;-75
2022/07/02 02:40:11;;;;;;;4.75;2.50;;;;;;;12.95;85.12;101943.78;5081860;28;20020;-76
2022/07/02 02:42:37;;;;;;;7.28;3.00;;;;;;;12.94;85.26;101952.59;5051167;28;20039;-75
2022/07/02 02:45:03;;;;;;;6.38;3.47;;;;;;;12.93;85.09;101952.72;5067048;28;20245;-75
2022/07/02 02:47:28;;;;;;;6.65;3.00;;;;;;;12.93;85.15;101960.53;5086253;28;20032;-75
2022/07/02 02:49:54;;;;;;;11.00;3.22;;;;;;;12.93;85.13;101953.53;5065620;28;20028;-75
2022/07/02 02:52:19;;;;;;;9.02;3.13;;;;;;;12.94;84.97;101949.13;5059837;28;20090;-75
2022/07/02 02:54:45;;;;;;;10.70;3.28;;;;;;;12.93;84.91;101950.94;5079390;28;20028;-75
2022/07/02 02:57:10;;;;;;;5.95;2.47;;;;;;;12.88;85.00;101960.94;5051969;28;20035;-75
2022/07/02 02:59:36;;;;;;;7.75;2.88;;;;;;;12.82;85.47;101956.31;5084169;28;20820;-76
2022/07/02 03:02:01;;;;;;;4.97;2.88;;;;;;;12.77;85.60;101959.34;5048205;28;20028;-75
2022/07/02 03:04:27;;;;;;;6.00;2.78;;;;;;;12.71;85.83;101959.91;5064891;28;20035;-75
2022/07/02 03:06:52;;;;;;;6.90;1.92;;;;;;;12.69;85.86;101964.44;5077216;28;20036;-75
2022/07/02 03:09:18;;;;;;;7.10;2.30;;;;;;;12.66;86.04;101960.34;5079033;28;20036;-75
2022/07/02 03:11:43;;;;;;;5.57;2.13;;;;;;;12.66;86.40;101959.53;5060710;28;20048;-74
2022/07/02 03:14:09;;;;;;;6.45;2.72;;;;;;;12.66;86.27;101955.13;5084769;28;20495;-75
2022/07/02 03:16:34;;;;;;;6.65;2.97;;;;;;;12.71;85.82;101959.91;5063798;28;20029;-75
2022/07/02 03:19:00;;;;;;;8.18;2.90;;;;;;;12.72;85.61;101963.34;5074866;28;20041;-75
2022/07/02 03:21:25;;;;;;;3.35;2.10;;;;;;;12.73;85.18;101960.59;5064338;28;20051;-75
2022/07/02 03:23:51;;;;;;;3.55;2.10;;;;;;;12.72;85.33;101960.75;5063113;28;20024;-75
2022/07/02 03:26:16;;;;;;;6.50;2.92;;;;;;;12.68;85.46;101969.78;5076189;28;20539;-74
2022/07/02 03:28:42;;;;;;;4.53;1.98;;;;;;;12.65;85.78;101963.88;5057963;28;20492;-75
2022/07/02 03:31:08;;;;;;;6.35;2.60;;;;;;;12.61;85.67;101967.75;5064468;28;20043;-75
2022/07/02 03:33:33;;;;;;;6.10;2.72;;;;;;;12.58;85.85;101965.44;5061200;28;20047;-78
2022/07/02 03:35:59;;;;;;;5.22;2.03;;;;;;;12.57;86.25;101970.78;5057401;28;20040;-75
2022/07/02 03:38:24;;;;;;;4.50;2.08;;;;;;;12.57;85.89;101969.00;5079233;28;20044;-75
2022/07/02 03:40:50;;;;;;;4.95;2.30;;;;;;;12.58;85.80;101973.25;5078297;28;20039;-75
2022/07/02 03:43:15;;;;;;;3.33;2.10;;;;;;;12.56;85.64;101969.13;5080109;28;20033;-75
2022/07/02 03:45:41;;;;;;;4.63;1.95;;;;;;;12.49;85.97;101968.88;5066256;28;20032;-76
2022/07/02 03:48:07;;;;;;;7.07;2.35;;;;;;;12.38;86.69;101964.66;5058135;28;20028;-75
2022/07/02 03:50:33;;;;;;;6.72;2.53;;;;;;;12.32;87.14;101961.78;5078802;28;20062;-75
2022/07/02 03:52:58;;;;;;;6.18;2.10;;;;;;;12.32;87.37;101964.38;5061105;28;20024;-74
2022/07/02 03:55:24;;;;;;;4.15;2.33;;;;;;;12.32;87.44;101964.38;5065316;28;20719;-75
2022/07/02 03:57:49;;;;;;;9.27;2.70;;;;;;;12.33;87.41;101966.03;5063435;28;20028;-75
2022/07/02 04:00:15;;;;;;;7.80;2.40;;;;;;;12.31;87.46;101965.34;5063766;28;20566;-76
2022/07/02 04:02:41;;;;;;;5.18;2.25;;;;;;;12.32;87.65;101967.81;5068009;28;20031;-75
2022/07/02 04:05:07;;;;;;;14.02;3.20;;;;;;;12.44;88.11;101969.28;5083440;28;20487;-76
2022/07/02 04:07:33;;;;;;;12.05;2.92;;;;;;;12.33;88.78;101969.44;5077272;28;20027;-75
2022/07/02 04:09:58;;;;;;;5.68;2.25;;;;;;;12.26;90.00;101979.59;5068789;28;20028;-75
2022/07/02 04:12:23;;;;;;;9.02;2.45;;;;;;;12.28;89.88;101974.22;5063486;28;20039;-75
2022/07/02 04:14:49;;;;;;;7.68;2.67;;;;;;;12.30;89.93;101967.13;5062512;28;20074;-75
2022/07/02 04:17:14;;;;;;;10.70;2.40;;;;;;;12.34;89.69;101972.84;5058731;28;20448;-75
2022/07/02 04:19:40;;;;;;;6.30;1.67;;;;;;;12.36;89.45;101973.56;5094918;28;20500;-75
2022/07/02 04:22:05;;;;;;;6.55;2.08;;;;;;;12.40;89.16;101974.91;5059542;28;20039;-76
2022/07/02 04:24:31;;;;;;;20.58;3.20;;;;;;;12.44;89.19;101974.47;5084467;28;20396;-76
2022/07/02 04:26:56;;;;;;;15.07;2.83;;;;;;;12.45;89.48;101983.94;5084876;28;20024;-76
2022/07/02 04:29:22;;;;;;;4.32;2.08;;;;;;;12.45;89.86;101983.94;5082407;28;20028;-76
2022/07/02 04:31:48;;;;;;;10.10;2.33;;;;;;;12.49;89.72;101974.09;5066995;28;20036;-76
2022/07/02 04:34:13;;;;;;;9.30;2.47;;;;;;;12.55;89.39;101972.69;5066836;28;20393;-76
2022/07/02 04:36:39;;;;;;;15.45;2.60;;;;;;;12.62;89.61;101974.59;5091871;28;20057;-75
2022/07/02 04:39:05;;;;;;;10.95;2.95;;;;;;;12.67;89.75;101974.16;5055121;28;20473;-76
2022/07/02 04:41:31;;;;;;;5.93;2.58;;;;;;;12.70;89.88;101983.50;5079457;28;20098;-76
2022/07/02 04:43:57;;;;;;;13.48;3.13;;;;;;;12.74;90.03;101984.84;5062384;28;20032;-76
2022/07/02 04:46:23;;;;;;;10.05;3.15;;;;;;;12.75;90.41;101989.06;5066445;28;20032;-76
2022/07/02 04:48:49;;;;;;;15.23;2.50;;;;;;;12.81;89.83;101984.13;5067272;28;20481;-76
2022/07/02 04:51:14;;;;;;;14.23;2.75;;;;;;;12.90;88.40;101986.84;5061722;28;20043;-75
2022/07/02 04:53:40;;;;;;;8.73;1.98;;;;;;;12.99;88.65;101984.19;5080053;28;20036;-76
2022/07/02 04:56:05;;;;;;;11.55;3.13;;;;;;;13.08;88.61;101976.50;5065481;28;20035;-75
2022/07/02 04:58:31;;;;;;;14.52;2.88;;;;;;;13.19;88.17;101976.31;5060027;28;20040;-74
2022/07/02 05:00:56;;;;;;;9.52;2.60;;;;;;;13.15;88.37;101980.19;5078367;28;20050;-76
2022/07/02 05:03:22;;;;;;;7.38;2.13;;;;;;;13.19;88.23;101971.09;5084823;28;20032;-76
2022/07/02 05:05:47;;;;;;;12.02;2.33;;;;;;;13.24;87.51;101972.31;5058623;28;20620;-76
2022/07/02 05:08:14;;;;;;;12.35;2.80;;;;;;;13.42;86.17;101976.78;5065971;28;20032;-76
2022/07/02 05:10:39;;;;;;;15.50;2.60;;;;;;;13.53;84.19;101976.56;5049820;28;20036;-75
2022/07/02 05:13:04;;;;;;;14.85;2.53;;;;;;;13.55;83.65;101971.22;5065841;28;20114;-75
2022/07/02 05:15:30;;;;;;;14.43;2.03;;;;;;;13.75;82.88;101975.34;5061706;28;20044;-76
2022/07/02 05:17:56;;;;;;;10.30;2.03;;;;;;;13.79;81.77;101974.06;5085196;28;20136;-74
2022/07/02 05:20:22;;;;;;;15.73;2.53;;;;;;;13.91;82.19;101976.44;5065223;28;20039;-75
2022/07/02 05:22:48;;;;;;;10.98;2.30;;;;;;;14.04;82.08;101971.66;5079288;28;20389;-76
2022/07/02 05:25:13;;;;;;;6.97;2.38;;;;;;;14.21;81.07;101975.22;5062805;28;20032;-75
2022/07/02 05:27:39;;;;;;;9.15;1.70;;;;;;;14.43;80.84;101973.09;5062636;28;20024;-75
2022/07/02 05:30:05;;;;;;;9.80;2.20;;;;;;;14.50;79.09;101974.94;5067967;28;20480;-75
2022/07/02 05:32:30;;;;;;;10.60;2.30;;;;;;;14.72;77.79;101968.41;5068463;28;20031;-74
2022/07/02 05:34:56;;;;;;;6.45;1.35;;;;;;;14.86;77.87;101967.03;5075893;28;20035;-75
2022/07/02 05:37:21;;;;;;;5.30;1.65;;;;;;;15.06;76.98;101966.78;5068400;28;20491;-75
2022/07/02 05:39:47;;;;;;;10.05;1.65;;;;;;;15.27;76.23;101966.38;5064748;28;20029;-75
2022/07/02 05:42:12;;;;;;;3.90;1.35;;;;;;;15.52;74.61;101964.63;5059207;28;20027;-75
2022/07/02 05:44:37;;;;;;;3.70;1.60;;;;;;;15.62;74.24;101970.53;5066772;28;20040;-75
2022/07/02 05:47:03;;;;;;;5.30;1.40;;;;;;;15.84;73.37;101976.16;5061230;28;20039;-75
2022/07/02 05:49:29;;;;;;;11.60;2.20;;;;;;;16.09;72.38;101974.38;5084385;28;20543;-75
2022/07/02 05:51:54;;;;;;;7.45;1.48;;;;;;;16.24;71.54;101974.53;5063489;28;20024;-75
2022/07/02 05:54:20;;;;;;;6.65;1.92;;;;;;;16.49;71.18;101983.16;5061557;28;20028;-75
2022/07/02 05:56:45;;;;;;;15.88;1.80;;;;;;;16.69;70.35;101978.38;5051060;28;20039;-74
2022/07/02 05:59:11;;;;;;;6.53;1.52;;;;;;;17.01;70.26;101971.41;5063513;28;20032;-75
2022/07/02 06:01:36;;;;;;;5.38;1.88;;;;;;;17.29;69.15;101984.88;5076973;28;20043;-75
2022/07/02 06:04:02;;;;;;;22.27;2.75;;;;;;;17.38;68.00;101989.09;5074935;28;20039;-74
2022/07/02 06:09:12;;;;;;;5.47;1.10;;;;;;;17.75;65.59;101989.38;5074981;28;20036;-76
2022/07/02 06:11:37;;;;;;;5.70;1.60;;;;;;;18.01;64.54;101997.75;5055083;28;20125;-76
2022/07/02 06:14:02;;;;;;;8.20;1.42;;;;;;;18.16;63.66;101987.28;5081470;28;20443;-75
2022/07/02 06:16:29;;;;;;;10.38;1.65;;;;;;;18.41;63.93;101993.13;5078410;28;20043;-74
2022/07/02 06:18:55;;;;;;;11.32;1.98;;;;;;;18.67;63.02;101997.13;5078809;28;20036;-75
2022/07/02 06:21:21;;;;;;;6.22;1.40;;;;;;;18.99;62.01;101989.91;5077292;28;20393;-76
2022/07/02 06:23:46;;;;;;;8.00;1.40;;;;;;;19.03;60.45;101994.59;5054849;28;20032;-75
2022/07/02 06:26:12;;;;;;;6.57;1.30;;;;;;;19.21;60.34;101991.59;5056220;28;20279;-75
2022/07/02 06:28:37;;;;;;;5.63;1.33;;;;;;;19.50;58.95;101989.09;5075630;28;20041;-75
2022/07/02 06:31:03;;;;;;;3.83;1.20;;;;;;;19.56;58.71;101991.78;5059968;28;20028;-73
2022/07/02 06:33:29;;;;;;;7.50;1.08;;;;;;;19.86;58.66;101996.94;5061183;28;20166;-76
2022/07/02 06:35:54;;;;;;;6.38;1.15;;;;;;;20.37;57.18;101994.09;5062068;28;20028;-74
2022/07/02 06:38:20;;;;;;;7.93;1.15;;;;;;;20.42;56.38;101996.19;5080186;28;20081;-76
2022/07/02 06:40:45;;;;;;;3.63;1.17;;;;;;;20.75;55.58;102001.66;5057968;28;20040;-74
2022/07/02 06:43:11;;;;;;;5.65;2.17;;;;;;;20.89;54.71;101986.75;5076350;28;20024;-75
2022/07/02 06:45:36;;;;;;;5.53;1.30;;;;;;;21.15;55.93;101993.13;5064609;28;20047;-77
2022/07/02 06:48:02;;;;;;;8.48;2.20;;;;;;;21.46;54.08;101990.00;5091369;28;20330;-76
2022/07/02 06:50:27;;;;;;;9.25;1.63;;;;;;;21.89;53.74;101986.22;5063354;28;20035;-75
2022/07/02 06:52:53;;;;;;;5.55;1.40;;;;;;;21.71;51.97;101984.16;5076335;28;20544;-76
2022/07/02 06:55:20;;;;;;;8.13;1.25;;;;;;;21.93;52.72;101982.94;5077133;28;20080;-76
2022/07/02 06:57:49;;;;;;;7.70;1.30;;;;;;;22.43;51.33;101977.22;5059884;28;20485;-76
2022/07/02 07:00:14;;;;;;;4.65;1.00;;;;;;;22.81;49.85;101975.69;5079344;28;20036;-76
2022/07/02 07:02:40;;;;;;;7.30;1.25;;;;;;;22.92;48.58;101975.88;5045064;28;20035;-74
2022/07/02 07:05:06;;;;;;;6.65;1.73;;;;;;;23.19;48.70;101972.31;5070270;28;20511;-74
2022/07/02 07:07:32;;;;;;;4.63;1.13;;;;;;;23.30;49.84;101969.81;5052636;28;20039;-75
2022/07/02 07:09:57;;;;;;;7.53;1.20;;;;;;;23.34;48.19;101970.19;5074632;28;20158;-75
2022/07/02 07:12:23;;;;;;;6.47;1.42;;;;;;;23.54;47.96;101966.59;5081963;28;20032;-74
2022/07/02 07:14:48;;;;;;;5.80;0.93;;;;;;;23.42;46.97;101966.50;5075350;28;20393;-75
2022/07/02 07:17:14;;;;;;;5.47;0.98;;;;;;;23.79;47.12;101970.13;5042983;28;20711;-75
2022/07/02 07:19:40;;;;;;;3.63;1.00;;;;;;;23.91;47.45;101970.22;5060036;28;20056;-76
2022/07/02 07:22:06;;;;;;;4.22;1.50;;;;;;;24.34;47.86;101966.75;5059542;28;20023;-74
2022/07/02 07:24:31;;;;;;;7.88;1.02;;;;;;;24.84;45.70;101966.59;5077076;28;20036;-75
2022/07/02 07:26:59;;;;;;;6.05;0.98;;;;;;;24.97;45.48;101965.63;5063960;28;20152;-77
2022/07/02 07:29:25;;;;;;;4.55;1.08;;;;;;;25.09;44.58;101962.22;5081427;28;20033;-76
2022/07/02 07:31:50;;;;;;;5.75;1.10;;;;;;;25.27;43.72;101961.41;5046857;28;20029;-74
2022/07/02 07:34:16;;;;;;;3.80;1.10;;;;;;;25.60;43.25;101956.41;5064127;28;20381;-76
2022/07/02 07:36:41;;;;;;;4.60;1.00;;;;;;;25.94;42.89;101946.06;5080844;28;20040;-75
2022/07/02 07:39:07;;;;;;;6.85;0.88;;;;;;;26.05;42.21;101954.25;5064953;28;20086;-77
2022/07/02 07:41:34;;;;;;;2.22;0.77;;;;;;;25.79;41.44;101957.09;5062871;28;20032;-76
2022/07/02 07:44:00;;;;;;;3.13;0.88;;;;;;;26.07;42.48;101958.31;5049087;28;20139;-76
2022/07/02 07:46:26;;;;;;;9.15;1.17;;;;;;;26.49;41.16;101952.81;5094531;28;20818;-76
2022/07/02 07:48:51;;;;;;;2.92;0.88;;;;;;;26.35;40.06;101962.06;5056461;28;20036;-75
2022/07/02 07:51:17;;;;;;;4.82;0.90;;;;;;;26.53;40.64;101958.47;5070855;28;20035;-75
2022/07/02 07:53:43;;;;;;;4.43;0.80;;;;;;;26.67;40.75;101959.03;5088349;28;20540;-76
2022/07/02 07:56:09;;;;;;;8.90;0.98;;;;;;;26.43;40.05;101956.41;5084807;28;20037;-76
2022/07/02 07:58:35;;;;;;;1.30;0.68;;;;;;;26.76;39.41;101955.75;5062161;28;20040;-76
2022/07/02 08:01:00;;;;;;;5.10;1.40;;;;;;;26.92;40.34;101953.41;5088252;28;20557;-76
2022/07/02 08:03:26;;;;;;;8.20;1.13;;;;;;;26.66;40.80;101957.44;5077526;28;20809;-76
2022/07/02 08:05:53;;;;;;;4.63;1.08;;;;;;;27.00;39.66;101955.66;5063703;28;20044;-75
2022/07/02 08:08:22;;;;;;;3.80;1.38;;;;;;;27.19;39.56;101945.63;5066997;28;20036;-75
2022/07/02 08:10:48;;;;;;;2.38;0.80;;;;;;;27.36;38.77;101951.78;5089387;28;20041;-77
2022/07/02 08:13:14;;;;;;;5.15;1.05;;;;;;;27.34;39.64;101948.56;5062641;28;20039;-75
2022/07/02 08:15:39;;;;;;;5.35;1.00;;;;;;;27.31;38.04;101949.06;5065572;28;20060;-75
2022/07/02 08:18:05;;;;;;;7.68;0.80;;;;;;;27.72;37.73;101939.03;5067151;28;20188;-76
2022/07/02 08:20:30;;;;;;;2.00;0.77;;;;;;;27.55;33.90;101935.59;5069135;28;20044;-75
2022/07/02 08:22:56;;;;;;;2.08;0.63;;;;;;;26.82;35.51;101938.03;5044234;28;20242;-78
2022/07/02 08:25:21;;;;;;;6.45;0.88;;;;;;;26.77;38.08;101927.31;5051060;28;20020;-77
2022/07/02 08:27:47;;;;;;;2.53;0.68;;;;;;;27.02;37.31;101928.81;5061657;28;20044;-75
2022/07/02 08:30:13;;;;;;;4.82;0.60;;;;;;;26.80;36.33;101932.16;5080613;28;20512;-77
2022/07/02 08:32:39;;;;;;;1.48;0.40;;;;;;;25.39;38.22;101947.13;5062517;28;20473;-78
2022/07/02 08:35:05;;;;;;;5.65;1.13;;;;;;;25.77;37.73;101934.47;5078500;28;20114;-75
2022/07/02 08:37:31;;;;;;;2.30;0.50;;;;;;;26.12;35.90;101934.47;5085080;28;20037;-76
2022/07/02 08:39:57;;;;;;;1.92;0.50;;;;;;;25.91;37.81;101941.16;5067126;28;20044;-77
2022/07/02 08:42:28;;;;;;;7.15;0.70;;;;;;;26.98;35.08;101931.94;5083739;28;20533;-74
2022/07/02 08:44:56;;;;;;;4.72;0.70;;;;;;;26.35;36.11;101933.66;5087314;28;20082;-76
2022/07/02 08:47:23;;;;;;;7.55;0.95;;;;;;;26.32;37.08;101928.78;5084744;28;20047;-75
2022/07/02 08:49:50;;;;;;;1.50;0.60;;;;;;;27.08;36.08;101923.34;5053800;28;20514;-75
2022/07/02 08:52:18;;;;;;;3.42;0.50;;;;;;;27.82;34.38;101924.25;5067365;28;20037;-75
2022/07/02 08:54:44;;;;;;;4.22;0.60;;;;;;;28.23;32.47;101920.28;5080573;28;20089;-76
2022/07/02 08:57:11;;;;;;;1.52;0.40;;;;;;;28.35;35.06;101923.66;5082124;28;20027;-76
2022/07/02 08:59:37;;;;;;;4.00;0.80;;;;;;;28.42;32.70;101917.31;5078838;28;20032;-77
2022/07/02 09:02:03;;;;;;;5.88;0.98;;;;;;;27.49;34.28;101918.72;5074486;28;20039;-76
2022/07/02 09:04:30;;;;;;;3.05;0.55;;;;;;;26.59;34.89;101931.75;5076879;28;20043;-76
2022/07/02 09:06:59;;;;;;;1.73;0.50;;;;;;;26.56;35.61;101931.38;5080498;28;20039;-76
2022/07/02 09:09:26;;;;;;;2.08;0.50;;;;;;;26.46;35.91;101920.56;5066608;28;20032;-76
2022/07/02 09:11:52;;;;;;;2.28;0.47;;;;;;;27.28;33.84;101911.47;5065593;28;20150;-74
2022/07/02 09:14:18;;;;;;;2.22;0.68;;;;;;;27.87;33.12;101911.81;5074585;28;20035;-77
2022/07/02 09:16:45;;;;;;;2.33;0.80;;;;;;;27.82;30.75;101914.41;5065370;28;20089;-75
2022/07/02 09:19:10;;;;;;;3.50;0.80;;;;;;;27.40;32.43;101914.03;5063299;28;20123;-76
2022/07/02 09:21:43;;;;;;;4.30;0.60;;;;;;;27.90;33.29;101902.56;5066096;28;20028;-75
2022/07/02 09:24:09;;;;;;;5.55;1.10;;;;;;;27.86;29.48;101909.38;5066442;28;20041;-78
2022/07/02 09:26:34;;;;;;;2.45;0.70;;;;;;;27.65;30.92;101906.44;5079791;28;20117;-75
2022/07/02 09:29:00;;;;;;;3.60;0.70;;;;;;;27.77;32.28;101901.81;5083862;28;20833;-76
2022/07/02 09:31:28;;;;;;;3.85;0.45;;;;;;;27.71;32.41;101904.66;5084065;28;20024;-74
2022/07/02 09:33:55;;;;;;;2.33;0.52;;;;;;;28.03;31.12;101904.03;5044690;28;20028;-75
2022/07/02 09:36:21;;;;;;;1.88;0.65;;;;;;;28.40;32.66;101904.22;5079368;28;20083;-75
2022/07/02 09:38:49;;;;;;;5.35;0.60;;;;;;;28.66;32.03;101900.00;5065209;28;20537;-76
2022/07/02 09:41:21;;;;;;;2.42;0.50;;;;;;;28.67;30.93;101900.81;5078149;28;20430;-75
2022/07/02 09:44:00;;;;;;;2.53;0.40;;;;;;;28.38;27.92;101893.00;5080823;28;20032;-76
2022/07/02 09:46:26;;;;;;;3.63;0.73;;;;;;;28.75;29.66;101886.25;5081790;28;20480;-75
2022/07/02 09:48:52;;;;;;;1.67;0.50;;;;;;;28.84;30.14;101885.53;5057079;28;20123;-75
2022/07/02 09:51:18;;;;;;;3.45;0.50;;;;;;;27.84;33.12;101893.66;5057546;28;20112;-76
2022/07/02 09:53:55;;;;;;;4.32;0.85;;;;;;;27.23;32.75;101888.19;5057934;28;20416;-76
2022/07/02 09:56:23;;;;;;;4.35;0.65;;;;;;;27.39;33.64;101889.28;5063247;28;20064;-75
2022/07/02 09:58:49;;;;;;;3.78;1.48;;;;;;;27.05;33.74;101893.72;5077319;28;20028;-77
2022/07/02 10:01:19;;;;;;;4.22;0.50;;;;;;;27.06;33.99;101890.03;5082864;28;20028;-76
2022/07/02 10:03:50;;;;;;;1.80;0.60;;;;;;;27.15;34.42;101883.28;5083108;28;20036;-76
2022/07/02 10:06:16;;;;;;;1.05;0.30;;;;;;;27.30;33.77;101866.78;5064592;28;20070;-75
2022/07/02 10:08:42;;;;;;;1.95;0.40;;;;;;;28.10;32.78;101867.34;5078123;28;20043;-75
2022/07/02 10:11:10;;;;;;;3.47;0.45;;;;;;;28.07;31.50;101867.88;5079922;28;20031;-76
2022/07/02 10:13:37;;;;;;;1.42;0.52;;;;;;;27.84;33.53;101867.03;5084111;28;20341;-75
2022/07/02 10:16:04;;;;;;;4.35;0.68;;;;;;;27.16;31.63;101869.72;5064055;28;20138;-77
2022/07/02 10:18:30;;;;;;;4.97;0.50;;;;;;;27.65;31.10;101860.34;5064767;28;20040;-77
2022/07/02 10:20:59;;;;;;;3.17;0.63;;;;;;;27.56;32.10;101859.97;5059601;28;20023;-75
2022/07/02 10:23:26;;;;;;;1.63;0.40;;;;;;;27.31;32.78;101855.88;5081673;28;20047;-75
2022/07/02 10:25:55;;;;;;;2.80;0.75;;;;;;;27.54;33.82;101857.53;5045827;28;20519;-76
2022/07/02 10:28:21;;;;;;;2.72;0.52;;;;;;;27.87;31.79;101841.72;5060064;28;20028;-75
2022/07/02 10:30:47;;;;;;;2.55;0.60;;;;;;;27.87;31.20;101847.84;5065169;28;20056;-76
2022/07/02 10:33:26;;;;;;;3.80;0.47;;;;;;;27.69;31.22;101843.63;5062775;28;20035;-76
2022/07/02 10:35:52;;;;;;;3.65;0.60;;;;;;;27.29;31.60;101843.84;5078119;28;20028;-76
2022/07/02 10:38:58;;;;;;;1.88;0.47;;;;;;;26.98;31.94;101846.00;5066206;28;20115;-76
2022/07/02 10:41:33;;;;;;;2.63;0.40;;;;;;;27.48;33.02;101837.22;5050387;28;20045;-76
2022/07/02 10:44:00;;;;;;;4.65;0.65;;;;;;;27.05;31.78;101841.34;5057224;28;20062;-77
2022/07/02 10:46:27;;;;;;;5.57;0.95;;;;;;;27.24;33.29;101836.56;5074476;28;20580;-78
2022/07/02 10:48:55;;;;;;;4.80;0.68;;;;;;;27.79;33.93;101828.84;5075311;28;20426;-74
2022/07/02 10:51:26;;;;;;;5.07;0.85;;;;;;;28.05;34.25;101821.97;5047064;28;20085;-77
2022/07/02 10:53:57;;;;;;;1.85;0.50;;;;;;;28.20;34.39;101829.34;5061681;28;20532;-75
2022/07/02 10:56:23;;;;;;;2.45;0.45;;;;;;;28.22;31.63;101821.91;5046516;28;20028;-77
2022/07/02 10:58:49;;;;;;;1.60;0.50;;;;;;;28.41;31.35;101814.38;5057314;28;20461;-77
2022/07/02 11:01:21;;;;;;;1.95;0.60;;;;;;;28.45;33.48;101823.50;5058159;28;20037;-75
2022/07/02 11:03:58;;;;;;;2.40;0.60;;;;;;;28.17;31.67;101822.66;5047845;28;20032;-75
2022/07/02 11:06:28;;;;;;;2.90;1.27;;;;;;;28.24;30.84;101820.63;5082037;28;20051;-75
2022/07/02 11:09:00;;;;;;;4.00;0.70;;;;;;;27.87;30.40;101815.88;5069556;28;20031;-75
2022/07/02 11:11:35;;;;;;;3.28;0.98;;;;;;;28.10;30.86;101814.84;5075381;28;20063;-75
2022/07/02 11:14:04;;;;;;;3.22;1.00;;;;;;;28.03;31.52;101822.25;5056807;28;20485;-74
2022/07/02 11:16:44;;;;;;;4.50;0.82;;;;;;;28.08;30.11;101818.81;5064679;28;20040;-74
2022/07/02 11:19:19;;;;;;;2.13;0.50;;;;;;;28.40;31.47;101808.22;5076215;28;20481;-74
2022/07/02 11:21:49;;;;;;;2.58;0.40;;;;;;;28.59;32.21;101814.03;5075624;28;20055;-77
2022/07/02 11:24:19;;;;;;;2.25;0.55;;;;;;;28.05;32.31;101812.13;5079388;28;20086;-77
2022/07/02 11:26:45;;;;;;;4.15;0.80;;;;;;;27.57;31.84;101816.28;5054105;28;20051;-75